sensor_id;sensor_type;location;lat;lon;timestamp;pressure;altitude;pressure_sealevel;temperature;humidity
13080;BME280;6606;49.154;9.280;2023-01-27T00:01:03;100008.16;;;0.76;100.00
13080;BME280;6606;49.154;9.280;2023-01-27T00:03:45;100010.75;;;0.80;100.00
13080;BME280;6606;49.154;9.280;2023-01-27T00:06:27;100013.31;;;0.86;100.00
13080;BME280;6606;49.154;9.280;2023-01-27T00:09:08;100010.69;;;0.91;100.00
13080;BME280;6606;49.154;9.280;2023-01-27T00:11:50;100008.06;;;0.96;100.00
13080;BME280;6606;49.154;9.280;2023-01-27T00:14:51;100019.34;;;1.01;100.00
13080;BME280;6606;49.154;9.280;2023-01-27T00:17:33;100012.38;;;1.01;100.00
13080;BME280;6606;49.154;9.280;2023-01-27T00:20:15;100012.41;;;0.97;100.00
13080;BME280;6606;49.154;9.280;2023-01-27T00:23:20;100015.03;;;0.94;100.00
13080;BME280;6606;49.154;9.280;2023-01-27T00:26:20;100008.13;;;0.88;100.00
13080;BME280;6606;49.154;9.280;2023-01-27T00:29:01;100009.78;;;0.98;100.00
13080;BME280;6606;49.154;9.280;2023-01-27T00:31:46;100008.03;;;0.99;100.00
13080;BME280;6606;49.154;9.280;2023-01-27T00:34:45;100011.56;;;0.92;100.00
13080;BME280;6606;49.154;9.280;2023-01-27T00:37:27;100009.78;;;1.00;100.00
13080;BME280;6606;49.154;9.280;2023-01-27T00:40:10;100009.75;;;1.04;100.00
13080;BME280;6606;49.154;9.280;2023-01-27T00:42:52;100012.38;;;1.06;100.00
13080;BME280;6606;49.154;9.280;2023-01-27T00:45:33;100010.56;;;1.11;100.00
13080;BME280;6606;49.154;9.280;2023-01-27T00:48:32;100015.81;;;1.05;100.00
13080;BME280;6606;49.154;9.280;2023-01-27T00:51:14;100009.75;;;1.04;100.00
13080;BME280;6606;49.154;9.280;2023-01-27T00:53:56;100020.19;;;1.03;100.00
13080;BME280;6606;49.154;9.280;2023-01-27T00:56:39;100018.41;;;1.08;100.00
13080;BME280;6606;49.154;9.280;2023-01-27T00:59:21;100012.38;;;1.01;100.00
13080;BME280;6606;49.154;9.280;2023-01-27T01:02:03;100013.22;;;1.06;100.00
13080;BME280;6606;49.154;9.280;2023-01-27T01:04:46;100015.81;;;1.08;100.00
13080;BME280;6606;49.154;9.280;2023-01-27T01:07:28;100010.63;;;1.02;100.00
13080;BME280;6606;49.154;9.280;2023-01-27T01:10:09;100015.78;;;1.14;100.00
13080;BME280;6606;49.154;9.280;2023-01-27T01:12:51;100017.53;;;1.12;100.00
13080;BME280;6606;49.154;9.280;2023-01-27T01:15:34;100021.00;;;1.14;100.00
13080;BME280;6606;49.154;9.280;2023-01-27T01:18:16;100023.59;;;1.16;100.00
13080;BME280;6606;49.154;9.280;2023-01-27T01:20:59;100017.50;;;1.17;100.00
13080;BME280;6606;49.154;9.280;2023-01-27T01:23:43;100018.41;;;1.13;100.00
13080;BME280;6606;49.154;9.280;2023-01-27T01:26:25;100019.22;;;1.16;100.00
13080;BME280;6606;49.154;9.280;2023-01-27T01:29:08;100023.59;;;1.17;100.00
13080;BME280;6606;49.154;9.280;2023-01-27T01:31:50;100022.81;;;1.06;100.00
13080;BME280;6606;49.154;9.280;2023-01-27T01:34:31;100017.50;;;1.15;100.00
13080;BME280;6606;49.154;9.280;2023-01-27T01:37:14;100017.50;;;1.15;100.00
13080;BME280;6606;49.154;9.280;2023-01-27T01:39:56;100009.63;;;1.23;100.00
13080;BME280;6606;49.154;9.280;2023-01-27T01:42:52;100013.09;;;1.23;100.00
13080;BME280;6606;49.154;9.280;2023-01-27T01:45:49;100008.78;;;1.19;100.00
13080;BME280;6606;49.154;9.280;2023-01-27T01:48:34;100007.03;;;1.18;100.00
13080;BME280;6606;49.154;9.280;2023-01-27T01:51:20;99998.34;;;1.16;100.00
13080;BME280;6606;49.154;9.280;2023-01-27T01:54:07;100001.81;;;1.18;100.00
13080;BME280;6606;49.154;9.280;2023-01-27T01:56:52;100004.44;;;1.18;100.00
13080;BME280;6606;49.154;9.280;2023-01-27T01:59:38;100002.84;;;0.93;100.00
13080;BME280;6606;49.154;9.280;2023-01-27T02:02:23;99998.50;;;0.95;100.00
13080;BME280;6606;49.154;9.280;2023-01-27T02:05:08;100000.31;;;0.83;100.00
13080;BME280;6606;49.154;9.280;2023-01-27T02:07:54;100001.94;;;1.00;100.00
13080;BME280;6606;49.154;9.280;2023-01-27T02:10:39;100001.00;;;1.08;100.00
13080;BME280;6606;49.154;9.280;2023-01-27T02:13:21;99996.63;;;1.14;100.00
13080;BME280;6606;49.154;9.280;2023-01-27T02:16:04;99998.34;;;1.16;100.00
13080;BME280;6606;49.154;9.280;2023-01-27T02:18:46;99997.56;;;1.06;100.00
13080;BME280;6606;49.154;9.280;2023-01-27T02:21:27;99994.91;;;1.11;100.00
13080;BME280;6606;49.154;9.280;2023-01-27T02:24:10;99989.78;;;0.99;100.00
13080;BME280;6606;49.154;9.280;2023-01-27T02:26:54;99988.09;;;0.88;100.00
13080;BME280;6606;49.154;9.280;2023-01-27T02:29:36;99989.78;;;0.93;100.00
13080;BME280;6606;49.154;9.280;2023-01-27T02:32:22;99993.22;;;1.04;100.00
13080;BME280;6606;49.154;9.280;2023-01-27T02:35:05;99994.06;;;1.07;100.00
13080;BME280;6606;49.154;9.280;2023-01-27T02:37:50;99985.38;;;1.07;100.00
13080;BME280;6606;49.154;9.280;2023-01-27T02:40:32;99992.38;;;1.03;100.00
13080;BME280;6606;49.154;9.280;2023-01-27T02:43:16;99990.59;;;1.05;100.00
13080;BME280;6606;49.154;9.280;2023-01-27T02:45:57;99986.25;;;1.03;100.00
13080;BME280;6606;49.154;9.280;2023-01-27T02:48:39;99988.84;;;1.09;100.00
13080;BME280;6606;49.154;9.280;2023-01-27T02:51:22;99993.19;;;1.12;100.00
13080;BME280;6606;49.154;9.280;2023-01-27T02:54:03;99988.91;;;0.98;100.00
13080;BME280;6606;49.154;9.280;2023-01-27T02:56:45;99991.50;;;1.00;100.00
13080;BME280;6606;49.154;9.280;2023-01-27T02:59:31;99987.97;;;1.07;100.00
13080;BME280;6606;49.154;9.280;2023-01-27T03:02:12;99989.72;;;1.05;100.00
13080;BME280;6606;49.154;9.280;2023-01-27T03:05:02;99987.16;;;0.99;100.00
13080;BME280;6606;49.154;9.280;2023-01-27T03:07:44;99990.66;;;0.95;100.00
13080;BME280;6606;49.154;9.280;2023-01-27T03:10:27;99988.06;;;0.95;100.00
13080;BME280;6606;49.154;9.280;2023-01-27T03:13:11;99992.47;;;0.85;100.00
13080;BME280;6606;49.154;9.280;2023-01-27T03:15:57;99988.16;;;0.82;100.00
13080;BME280;6606;49.154;9.280;2023-01-27T03:18:56;99997.75;;;0.71;100.00
13080;BME280;6606;49.154;9.280;2023-01-27T03:21:38;99998.56;;;0.79;100.00
13080;BME280;6606;49.154;9.280;2023-01-27T03:24:20;100000.31;;;0.80;100.00
13080;BME280;6606;49.154;9.280;2023-01-27T03:27:03;99996.91;;;0.63;100.00
13080;BME280;6606;49.154;9.280;2023-01-27T03:30:06;99979.53;;;0.65;100.00
13080;BME280;6606;49.154;9.280;2023-01-27T03:32:51;99991.78;;;0.49;100.00
13080;BME280;6606;49.154;9.280;2023-01-27T03:36:03;99991.66;;;0.75;100.00
13080;BME280;6606;49.154;9.280;2023-01-27T03:39:04;99986.38;;;0.84;100.00
13080;BME280;6606;49.154;9.280;2023-01-27T03:42:03;99995.09;;;0.85;100.00
13080;BME280;6606;49.154;9.280;2023-01-27T03:45:05;100004.66;;;0.81;100.00
13080;BME280;6606;49.154;9.280;2023-01-27T03:48:05;99998.59;;;0.73;100.00
13080;BME280;6606;49.154;9.280;2023-01-27T03:50:47;99999.41;;;0.84;100.00
13080;BME280;6606;49.154;9.280;2023-01-27T03:53:33;100007.28;;;0.74;100.00
13080;BME280;6606;49.154;9.280;2023-01-27T03:56:16;100009.00;;;0.79;100.00
13080;BME280;6606;49.154;9.280;2023-01-27T03:58:58;100009.16;;;0.52;100.00
13080;BME280;6606;49.154;9.280;2023-01-27T04:01:40;100011.66;;;0.75;100.00
13080;BME280;6606;49.154;9.280;2023-01-27T04:04:24;100009.91;;;0.75;100.00
13080;BME280;6606;49.154;9.280;2023-01-27T04:07:23;100014.22;;;0.82;100.00
13080;BME280;6606;49.154;9.280;2023-01-27T04:10:05;100012.47;;;0.81;100.00
13080;BME280;6606;49.154;9.280;2023-01-27T04:12:47;100012.47;;;0.84;100.00
13080;BME280;6606;49.154;9.280;2023-01-27T04:15:29;100014.19;;;0.88;100.00
13080;BME280;6606;49.154;9.280;2023-01-27T04:18:10;100021.09;;;0.93;100.00
13080;BME280;6606;49.154;9.280;2023-01-27T04:20:53;100015.00;;;0.97;100.00
13080;BME280;6606;49.154;9.280;2023-01-27T04:23:35;100022.03;;;0.85;100.00
13080;BME280;6606;49.154;9.280;2023-01-27T04:26:17;100034.25;;;0.80;100.00
13080;BME280;6606;49.154;9.280;2023-01-27T04:28:59;100026.41;;;0.80;100.00
13080;BME280;6606;49.154;9.280;2023-01-27T04:31:41;100029.03;;;0.76;100.00
13080;BME280;6606;49.154;9.280;2023-01-27T04:34:23;100021.22;;;0.77;100.00
13080;BME280;6606;49.154;9.280;2023-01-27T04:37:07;100034.25;;;0.80;100.00
13080;BME280;6606;49.154;9.280;2023-01-27T04:39:49;100025.50;;;0.87;100.00
13080;BME280;6606;49.154;9.280;2023-01-27T04:42:31;100036.00;;;0.80;100.00
13080;BME280;6606;49.154;9.280;2023-01-27T04:45:13;100031.59;;;0.88;100.00
13080;BME280;6606;49.154;9.280;2023-01-27T04:47:55;100031.59;;;0.83;100.00
13080;BME280;6606;49.154;9.280;2023-01-27T04:50:37;100035.09;;;0.81;100.00
13080;BME280;6606;49.154;9.280;2023-01-27T04:53:20;100021.16;;;0.83;100.00
13080;BME280;6606;49.154;9.280;2023-01-27T04:56:04;100019.41;;;0.87;100.00
13080;BME280;6606;49.154;9.280;2023-01-27T04:58:47;100024.66;;;0.85;100.00
13080;BME280;6606;49.154;9.280;2023-01-27T05:01:29;100033.31;;;0.84;100.00
13080;BME280;6606;49.154;9.280;2023-01-27T05:04:11;100029.88;;;0.85;100.00
13080;BME280;6606;49.154;9.280;2023-01-27T05:06:53;100036.81;;;0.83;100.00
13080;BME280;6606;49.154;9.280;2023-01-27T05:09:36;100033.47;;;0.57;100.00
13080;BME280;6606;49.154;9.280;2023-01-27T05:12:18;100014.25;;;0.76;100.00
13080;BME280;6606;49.154;9.280;2023-01-27T05:15:00;100019.41;;;0.88;100.00
13080;BME280;6606;49.154;9.280;2023-01-27T05:17:42;100025.50;;;0.84;100.00
13080;BME280;6606;49.154;9.280;2023-01-27T05:20:23;100029.91;;;0.75;100.00
13080;BME280;6606;49.154;9.280;2023-01-27T05:23:05;100035.97;;;0.83;100.00
13080;BME280;6606;49.154;9.280;2023-01-27T05:26:08;100040.31;;;0.76;100.00
13080;BME280;6606;49.154;9.280;2023-01-27T05:28:51;100040.41;;;0.64;100.00
13080;BME280;6606;49.154;9.280;2023-01-27T05:31:33;100039.53;;;0.67;100.00
13080;BME280;6606;49.154;9.280;2023-01-27T05:34:15;100038.63;;;0.77;100.00
13080;BME280;6606;49.154;9.280;2023-01-27T05:36:57;100038.69;;;0.54;100.00
13080;BME280;6606;49.154;9.280;2023-01-27T05:39:38;100040.41;;;0.61;100.00
13080;BME280;6606;49.154;9.280;2023-01-27T05:42:21;100049.06;;;0.66;100.00
13080;BME280;6606;49.154;9.280;2023-01-27T05:45:04;100049.03;;;0.78;100.00
13080;BME280;6606;49.154;9.280;2023-01-27T05:47:48;100049.94;;;0.68;100.00
13080;BME280;6606;49.154;9.280;2023-01-27T05:50:30;100043.94;;;0.46;100.00
13080;BME280;6606;49.154;9.280;2023-01-27T05:53:11;100045.69;;;0.44;100.00
13080;BME280;6606;49.154;9.280;2023-01-27T05:55:53;100039.56;;;0.51;100.00
13080;BME280;6606;49.154;9.280;2023-01-27T05:58:37;100043.00;;;0.62;100.00
13080;BME280;6606;49.154;9.280;2023-01-27T06:01:20;100047.31;;;0.68;100.00
13080;BME280;6606;49.154;9.280;2023-01-27T06:04:02;100040.38;;;0.67;100.00
13080;BME280;6606;49.154;9.280;2023-01-27T06:06:44;100048.16;;;0.78;100.00
13080;BME280;6606;49.154;9.280;2023-01-27T06:09:26;100055.22;;;0.54;100.00
13080;BME280;6606;49.154;9.280;2023-01-27T06:12:07;100041.28;;;0.57;100.00
13080;BME280;6606;49.154;9.280;2023-01-27T06:14:51;100045.59;;;0.65;100.00
13080;BME280;6606;49.154;9.280;2023-01-27T06:17:32;100044.75;;;0.62;100.00
13080;BME280;6606;49.154;9.280;2023-01-27T06:20:14;100041.22;;;0.74;100.00
13080;BME280;6606;49.154;9.280;2023-01-27T06:22:57;100040.31;;;0.79;100.00
13080;BME280;6606;49.154;9.280;2023-01-27T06:25:40;100042.94;;;0.76;100.00
13080;BME280;6606;49.154;9.280;2023-01-27T06:28:22;100042.13;;;0.62;100.00
13080;BME280;6606;49.154;9.280;2023-01-27T06:31:07;100046.44;;;0.71;100.00
13080;BME280;6606;49.154;9.280;2023-01-27T06:33:49;100056.94;;;0.55;100.00
13080;BME280;6606;49.154;9.280;2023-01-27T06:36:31;100050.81;;;0.67;100.00
13080;BME280;6606;49.154;9.280;2023-01-27T06:39:12;100052.53;;;0.74;100.00
13080;BME280;6606;49.154;9.280;2023-01-27T06:41:55;100060.31;;;0.79;100.00
13080;BME280;6606;49.154;9.280;2023-01-27T06:44:37;100068.13;;;0.83;100.00
13080;BME280;6606;49.154;9.280;2023-01-27T06:47:20;100078.56;;;0.88;100.00
13080;BME280;6606;49.154;9.280;2023-01-27T06:50:02;100084.66;;;0.79;100.00
13080;BME280;6606;49.154;9.280;2023-01-27T06:52:44;100089.88;;;0.85;100.00
13080;BME280;6606;49.154;9.280;2023-01-27T06:55:26;100092.50;;;0.82;100.00
13080;BME280;6606;49.154;9.280;2023-01-27T06:58:08;100100.28;;;0.93;100.00
13080;BME280;6606;49.154;9.280;2023-01-27T07:00:51;100095.97;;;0.81;100.00
13080;BME280;6606;49.154;9.280;2023-01-27T07:03:35;100103.84;;;0.69;100.00
13080;BME280;6606;49.154;9.280;2023-01-27T07:06:17;100109.91;;;0.80;100.00
13080;BME280;6606;49.154;9.280;2023-01-27T07:08:59;100109.03;;;0.83;100.00
13080;BME280;6606;49.154;9.280;2023-01-27T07:11:41;100108.16;;;0.82;100.00
13080;BME280;6606;49.154;9.280;2023-01-27T07:14:23;100116.84;;;0.78;100.00
13080;BME280;6606;49.154;9.280;2023-01-27T07:17:06;100115.97;;;0.81;100.00
13080;BME280;6606;49.154;9.280;2023-01-27T07:19:49;100116.84;;;0.87;100.00
13080;BME280;6606;49.154;9.280;2023-01-27T07:22:31;100108.13;;;0.88;100.00
13080;BME280;6606;49.154;9.280;2023-01-27T07:25:13;100114.16;;;0.95;100.00
13080;BME280;6606;49.154;9.280;2023-01-27T07:27:56;100122.88;;;0.90;100.00
13080;BME280;6606;49.154;9.280;2023-01-27T07:30:38;100135.03;;;0.95;100.00
13080;BME280;6606;49.154;9.280;2023-01-27T07:33:20;100140.28;;;0.89;100.00
13080;BME280;6606;49.154;9.280;2023-01-27T07:36:03;100136.84;;;0.82;100.00
13080;BME280;6606;49.154;9.280;2023-01-27T07:38:48;100127.25;;;0.84;100.00
13080;BME280;6606;49.154;9.280;2023-01-27T07:41:30;100137.75;;;0.72;100.00
13080;BME280;6606;49.154;9.280;2023-01-27T07:44:12;100132.50;;;0.87;100.00
13080;BME280;6606;49.154;9.280;2023-01-27T07:46:53;100136.78;;;0.99;100.00
13080;BME280;6606;49.154;9.280;2023-01-27T07:49:35;100146.34;;;0.93;100.00
13080;BME280;6606;49.154;9.280;2023-01-27T07:52:18;100140.28;;;0.89;100.00
13080;BME280;6606;49.154;9.280;2023-01-27T07:55:00;100138.53;;;0.97;100.00
13080;BME280;6606;49.154;9.280;2023-01-27T07:57:42;100141.97;;;1.05;100.00
13080;BME280;6606;49.154;9.280;2023-01-27T08:00:24;100148.03;;;1.15;100.00
13080;BME280;6606;49.154;9.280;2023-01-27T08:03:19;100153.22;;;1.21;100.00
13080;BME280;6606;49.154;9.280;2023-01-27T08:06:05;100151.53;;;1.14;100.00
13080;BME280;6606;49.154;9.280;2023-01-27T08:08:49;100156.72;;;1.17;100.00
13080;BME280;6606;49.154;9.280;2023-01-27T08:11:31;100157.66;;;0.99;100.00
13080;BME280;6606;49.154;9.280;2023-01-27T08:14:12;100160.25;;;1.07;100.00
13080;BME280;6606;49.154;9.280;2023-01-27T08:16:54;100160.28;;;1.01;100.00
13080;BME280;6606;49.154;9.280;2023-01-27T08:19:36;100167.22;;;1.05;100.00
13080;BME280;6606;49.154;9.280;2023-01-27T08:22:18;100166.44;;;0.75;100.00
13080;BME280;6606;49.154;9.280;2023-01-27T08:25:03;100165.53;;;0.88;100.00
13080;BME280;6606;49.154;9.280;2023-01-27T08:27:48;100165.56;;;0.75;100.00
13080;BME280;6606;49.154;9.280;2023-01-27T08:30:29;100162.06;;;0.76;100.00
13080;BME280;6606;49.154;9.280;2023-01-27T08:33:11;100159.50;;;0.65;100.00
13080;BME280;6606;49.154;9.280;2023-01-27T08:35:53;100168.19;;;0.70;100.00
13080;BME280;6606;49.154;9.280;2023-01-27T08:38:35;100172.47;;;0.86;100.00
13080;BME280;6606;49.154;9.280;2023-01-27T08:41:21;100181.19;;;0.90;100.00
13080;BME280;6606;49.154;9.280;2023-01-27T08:44:04;100182.00;;;1.07;100.00
13080;BME280;6606;49.154;9.280;2023-01-27T08:46:47;100175.84;;;1.16;100.00
13080;BME280;6606;49.154;9.280;2023-01-27T08:49:28;100170.59;;;1.31;100.00
13080;BME280;6606;49.154;9.280;2023-01-27T08:52:10;100175.75;;;1.44;100.00
13080;BME280;6606;49.154;9.280;2023-01-27T08:54:52;100176.69;;;1.26;100.00
13080;BME280;6606;49.154;9.280;2023-01-27T08:57:35;100180.97;;;1.47;100.00
13080;BME280;6606;49.154;9.280;2023-01-27T09:00:17;100187.84;;;1.60;100.00
13080;BME280;6606;49.154;9.280;2023-01-27T09:02:59;100184.25;;;1.80;100.00
13080;BME280;6606;49.154;9.280;2023-01-27T09:05:41;100190.31;;;1.86;100.00
13080;BME280;6606;49.154;9.280;2023-01-27T09:08:23;100178.38;;;1.44;100.00
13080;BME280;6606;49.154;9.280;2023-01-27T09:11:09;100177.38;;;1.69;100.00
13080;BME280;6606;49.154;9.280;2023-01-27T09:13:52;100171.34;;;1.52;100.00
13080;BME280;6606;49.154;9.280;2023-01-27T09:16:34;100178.25;;;1.64;100.00
13080;BME280;6606;49.154;9.280;2023-01-27T09:19:16;100176.56;;;1.57;100.00
13080;BME280;6606;49.154;9.280;2023-01-27T09:21:57;100184.41;;;1.57;100.00
13080;BME280;6606;49.154;9.280;2023-01-27T09:24:39;100167.06;;;1.39;100.00
13080;BME280;6606;49.154;9.280;2023-01-27T09:27:21;100168.00;;;1.21;100.00
13080;BME280;6606;49.154;9.280;2023-01-27T09:30:05;100175.78;;;1.41;100.00
13080;BME280;6606;49.154;9.280;2023-01-27T09:32:47;100180.91;;;1.53;100.00
13080;BME280;6606;49.154;9.280;2023-01-27T09:35:35;100173.88;;;1.70;100.00
13080;BME280;6606;49.154;9.280;2023-01-27T09:38:19;100185.06;;;1.91;100.00
13080;BME280;6606;49.154;9.280;2023-01-27T09:41:17;100184.34;;;1.67;100.00
13080;BME280;6606;49.154;9.280;2023-01-27T09:44:18;100191.25;;;1.78;100.00
13080;BME280;6606;49.154;9.280;2023-01-27T09:47:20;100196.38;;;1.90;100.00
13080;BME280;6606;49.154;9.280;2023-01-27T09:50:22;100207.84;;;1.66;100.00
13080;BME280;6606;49.154;9.280;2023-01-27T09:53:22;100203.56;;;1.57;100.00
13080;BME280;6606;49.154;9.280;2023-01-27T09:56:14;100200.94;;;1.56;100.00
13080;BME280;6606;49.154;9.280;2023-01-27T09:59:08;100201.75;;;1.65;100.00
13080;BME280;6606;49.154;9.280;2023-01-27T10:01:58;100194.84;;;1.55;100.00
13080;BME280;6606;49.154;9.280;2023-01-27T10:05:14;100208.78;;;1.57;100.00
13080;BME280;6606;49.154;9.280;2023-01-27T10:08:17;100189.63;;;1.52;100.00
13080;BME280;6606;49.154;9.280;2023-01-27T10:11:14;100199.28;;;1.35;100.00
13080;BME280;6606;49.154;9.280;2023-01-27T10:14:09;100195.75;;;1.48;100.00
13080;BME280;6606;49.154;9.280;2023-01-27T10:17:05;100196.69;;;1.36;100.00
13080;BME280;6606;49.154;9.280;2023-01-27T10:20:09;100199.16;;;1.64;100.00
13080;BME280;6606;49.154;9.280;2023-01-27T10:23:05;100193.13;;;1.51;100.00
13080;BME280;6606;49.154;9.280;2023-01-27T10:25:56;100206.94;;;1.71;100.00
13080;BME280;6606;49.154;9.280;2023-01-27T10:28:41;100198.13;;;1.91;100.00
13080;BME280;6606;49.154;9.280;2023-01-27T10:31:35;100192.91;;;1.89;100.00
13080;BME280;6606;49.154;9.280;2023-01-27T10:34:26;100199.94;;;1.83;100.00
13080;BME280;6606;49.154;9.280;2023-01-27T10:37:18;100194.75;;;1.70;100.00
13080;BME280;6606;49.154;9.280;2023-01-27T10:40:10;100190.34;;;1.83;100.00
13080;BME280;6606;49.154;9.280;2023-01-27T10:42:56;100191.31;;;1.67;100.00
13080;BME280;6606;49.154;9.280;2023-01-27T10:45:49;100183.47;;;1.65;100.00
13080;BME280;6606;49.154;9.280;2023-01-27T10:48:37;100179.06;;;1.73;100.00
13080;BME280;6606;49.154;9.280;2023-01-27T10:51:25;100189.53;;;1.70;100.00
13080;BME280;6606;49.154;9.280;2023-01-27T10:54:11;100181.63;;;1.83;100.00
13080;BME280;6606;49.154;9.280;2023-01-27T10:57:00;100186.81;;;1.87;100.00
13080;BME280;6606;49.154;9.280;2023-01-27T10:59:49;100191.19;;;1.87;100.00
13080;BME280;6606;49.154;9.280;2023-01-27T11:02:37;100185.06;;;1.88;100.00
13080;BME280;6606;49.154;9.280;2023-01-27T11:05:26;100186.72;;;2.03;100.00
13080;BME280;6606;49.154;9.280;2023-01-27T11:08:13;100188.50;;;1.94;100.00
13080;BME280;6606;49.154;9.280;2023-01-27T11:10:59;100190.34;;;1.82;100.00
13080;BME280;6606;49.154;9.280;2023-01-27T11:14:08;100190.38;;;1.80;100.00
13080;BME280;6606;49.154;9.280;2023-01-27T11:16:55;100192.91;;;1.89;100.00
13080;BME280;6606;49.154;9.280;2023-01-27T11:19:42;100190.16;;;2.09;100.00
13080;BME280;6606;49.154;9.280;2023-01-27T11:22:34;100194.56;;;2.04;100.00
13080;BME280;6606;49.154;9.280;2023-01-27T11:25:23;100184.13;;;1.98;100.00
13080;BME280;6606;49.154;9.280;2023-01-27T11:28:16;100183.97;;;2.19;100.00
13080;BME280;6606;49.154;9.280;2023-01-27T11:31:06;100176.84;;;2.35;100.00
13080;BME280;6606;49.154;9.280;2023-01-27T11:33:57;100183.13;;;2.17;100.00
13080;BME280;6606;49.154;9.280;2023-01-27T11:36:43;100186.56;;;2.21;100.00
13080;BME280;6606;49.154;9.280;2023-01-27T11:39:25;100171.72;;;2.25;100.00
13080;BME280;6606;49.154;9.280;2023-01-27T11:42:10;100173.44;;;2.27;100.00
13080;BME280;6606;49.154;9.280;2023-01-27T11:44:54;100178.72;;;2.19;100.00
13080;BME280;6606;49.154;9.280;2023-01-27T11:47:39;100169.22;;;2.12;100.00
13080;BME280;6606;49.154;9.280;2023-01-27T11:50:24;100168.34;;;2.10;100.00
13080;BME280;6606;49.154;9.280;2023-01-27T11:53:13;100165.03;;;1.85;100.00
13080;BME280;6606;49.154;9.280;2023-01-27T11:56:01;100175.53;;;1.84;100.00
13080;BME280;6606;49.154;9.280;2023-01-27T11:58:48;100169.25;;;2.06;100.00
13080;BME280;6606;49.154;9.280;2023-01-27T12:01:45;100159.56;;;2.20;100.00
13080;BME280;6606;49.154;9.280;2023-01-27T12:04:40;100156.03;;;2.28;100.00
13080;BME280;6606;49.154;9.280;2023-01-27T12:07:37;100150.03;;;2.13;100.00
13080;BME280;6606;49.154;9.280;2023-01-27T12:10:27;100153.47;;;2.20;100.00
13080;BME280;6606;49.154;9.280;2023-01-27T12:13:15;100156.19;;;2.09;100.00
13080;BME280;6606;49.154;9.280;2023-01-27T12:15:59;100150.84;;;2.18;100.00
13080;BME280;6606;49.154;9.280;2023-01-27T12:18:50;100150.84;;;2.18;100.00
13080;BME280;6606;49.154;9.280;2023-01-27T12:21:39;100145.47;;;2.37;100.00
13080;BME280;6606;49.154;9.280;2023-01-27T12:24:27;100152.25;;;2.56;100.00
13080;BME280;6606;49.154;9.280;2023-01-27T12:27:19;100146.84;;;2.72;100.00
13080;BME280;6606;49.154;9.280;2023-01-27T12:30:05;100150.72;;;2.34;100.00
13080;BME280;6606;49.154;9.280;2023-01-27T12:32:48;100147.25;;;2.32;100.00
13080;BME280;6606;49.154;9.280;2023-01-27T12:35:33;100151.50;;;2.47;100.00
13080;BME280;6606;49.154;9.280;2023-01-27T12:38:20;100148.13;;;2.34;100.00
13080;BME280;6606;49.154;9.280;2023-01-27T12:41:04;100157.53;;;2.50;100.00
13080;BME280;6606;49.154;9.280;2023-01-27T12:43:50;100146.06;;;2.65;100.00
13080;BME280;6606;49.154;9.280;2023-01-27T12:46:33;100138.25;;;2.59;100.00
13080;BME280;6606;49.154;9.280;2023-01-27T12:49:19;100141.66;;;2.69;100.00
13080;BME280;6606;49.154;9.280;2023-01-27T12:52:03;100138.25;;;2.60;100.00
13080;BME280;6606;49.154;9.280;2023-01-27T12:54:49;100153.47;;;2.18;100.00
13080;BME280;6606;49.154;9.280;2023-01-27T12:57:33;100148.94;;;2.39;100.00
13080;BME280;6606;49.154;9.280;2023-01-27T13:00:15;100150.56;;;2.52;100.00
13080;BME280;6606;49.154;9.280;2023-01-27T13:03:03;100151.41;;;2.53;100.00
13080;BME280;6606;49.154;9.280;2023-01-27T13:05:50;100159.50;;;2.28;100.00
13080;BME280;6606;49.154;9.280;2023-01-27T13:08:37;100151.38;;;2.56;100.00
13080;BME280;6606;49.154;9.280;2023-01-27T13:11:34;100160.91;;;2.61;100.00
13080;BME280;6606;49.154;9.280;2023-01-27T13:14:18;100156.72;;;2.45;100.00
13080;BME280;6606;49.154;9.280;2023-01-27T13:16:59;100156.78;;;2.37;100.00
13080;BME280;6606;49.154;9.280;2023-01-27T13:19:44;100157.63;;;2.44;100.00
13080;BME280;6606;49.154;9.280;2023-01-27T13:22:37;100158.63;;;2.26;100.00
13080;BME280;6606;49.154;9.280;2023-01-27T13:25:22;100159.31;;;2.48;100.00
13080;BME280;6606;49.154;9.280;2023-01-27T13:28:07;100164.53;;;2.48;100.00
13080;BME280;6606;49.154;9.280;2023-01-27T13:30:57;100159.09;;;2.71;100.00
13080;BME280;6606;49.154;9.280;2023-01-27T13:33:45;100163.31;;;2.86;100.00
13080;BME280;6606;49.154;9.280;2023-01-27T13:36:32;100159.97;;;2.70;100.00
13080;BME280;6606;49.154;9.280;2023-01-27T13:39:24;100160.19;;;2.46;100.00
13080;BME280;6606;49.154;9.280;2023-01-27T13:42:13;100159.13;;;2.68;100.00
13080;BME280;6606;49.154;9.280;2023-01-27T13:45:02;100164.31;;;2.70;100.00
13080;BME280;6606;49.154;9.280;2023-01-27T13:47:50;100154.66;;;2.75;100.00
13080;BME280;6606;49.154;9.280;2023-01-27T13:50:35;100160.81;;;2.72;100.00
13080;BME280;6606;49.154;9.280;2023-01-27T13:53:18;100159.00;;;2.79;100.00
13080;BME280;6606;49.154;9.280;2023-01-27T13:56:07;100159.03;;;2.76;100.00
13080;BME280;6606;49.154;9.280;2023-01-27T13:58:58;100162.59;;;2.69;100.00
13080;BME280;6606;49.154;9.280;2023-01-27T14:01:52;100161.69;;;2.70;100.00
13080;BME280;6606;49.154;9.280;2023-01-27T14:04:55;100166.09;;;2.68;100.00
13080;BME280;6606;49.154;9.280;2023-01-27T14:07:46;100172.31;;;2.56;100.00
13080;BME280;6606;49.154;9.280;2023-01-27T14:10:35;100167.97;;;2.53;100.00
13080;BME280;6606;49.154;9.280;2023-01-27T14:13:28;100165.25;;;2.64;100.00
13080;BME280;6606;49.154;9.280;2023-01-27T14:16:16;100161.69;;;2.70;100.00
13080;BME280;6606;49.154;9.280;2023-01-27T14:19:05;100157.38;;;2.69;100.00
13080;BME280;6606;49.154;9.280;2023-01-27T14:21:59;100165.03;;;2.89;100.00
13080;BME280;6606;49.154;9.280;2023-01-27T14:24:46;100171.22;;;2.77;100.00
13080;BME280;6606;49.154;9.280;2023-01-27T14:27:36;100175.72;;;2.66;100.00
13080;BME280;6606;49.154;9.280;2023-01-27T14:30:23;100170.28;;;2.84;100.00
13080;BME280;6606;49.154;9.280;2023-01-27T14:33:13;100165.88;;;2.89;100.00
13080;BME280;6606;49.154;9.280;2023-01-27T14:36:08;100176.09;;;3.11;100.00
13080;BME280;6606;49.154;9.280;2023-01-27T14:38:58;100180.69;;;2.92;100.00
13080;BME280;6606;49.154;9.280;2023-01-27T14:41:45;100168.41;;;2.94;100.00